createdAt,value
2019-05-16T00:00:59.194Z,6.57
2019-05-16T00:03:28.833Z,7.33
2019-05-16T00:05:58.611Z,5.60
2019-05-16T00:08:28.679Z,8.37
2019-05-16T00:10:59.779Z,5.23
2019-05-16T00:13:29.424Z,6.58
2019-05-16T00:15:59.082Z,5.77
2019-05-16T00:18:28.905Z,9.57
2019-05-16T00:20:58.674Z,9.18
2019-05-16T00:23:29.360Z,4.27
2019-05-16T00:25:59.014Z,7.40
2019-05-16T00:28:28.783Z,5.60
2019-05-16T00:30:59.224Z,6.97
2019-05-16T00:33:29.006Z,11.00
2019-05-16T00:36:03.517Z,11.25
2019-05-16T00:38:30.339Z,9.00
2019-05-16T00:41:00.177Z,8.13
2019-05-16T00:43:30.121Z,6.17
2019-05-16T00:45:59.787Z,8.55
2019-05-16T00:48:29.569Z,5.97
2019-05-16T00:50:59.382Z,6.43
2019-05-16T00:53:29.125Z,7.77
2019-05-16T00:56:00.348Z,8.53
2019-05-16T00:58:31.944Z,8.57
2019-05-16T01:01:01.654Z,7.90
2019-05-16T01:03:31.305Z,6.07
2019-05-16T01:06:01.323Z,5.90
2019-05-16T01:08:30.976Z,5.93
2019-05-16T01:11:00.769Z,9.23
2019-05-16T01:13:30.761Z,9.60
2019-05-16T01:16:00.502Z,5.97
2019-05-16T01:18:30.301Z,8.40
2019-05-16T01:20:59.946Z,6.83
2019-05-16T01:23:29.618Z,9.38
2019-05-16T01:25:59.263Z,7.30
2019-05-16T01:28:28.932Z,6.97
2019-05-16T01:30:58.655Z,6.17
2019-05-16T01:33:28.331Z,7.47
2019-05-16T01:35:58.619Z,8.27
2019-05-16T01:38:29.554Z,6.43
2019-05-16T01:40:59.210Z,12.27
2019-05-16T01:43:28.889Z,7.47
2019-05-16T01:45:58.546Z,9.98
2019-05-16T01:48:29.174Z,9.78
2019-05-16T01:50:59.465Z,7.03
2019-05-16T01:53:29.370Z,5.93
2019-05-16T01:55:59.010Z,9.65
2019-05-16T01:58:29.116Z,6.40
2019-05-16T02:01:11.586Z,9.70
2019-05-16T02:03:30.186Z,8.93
2019-05-16T02:05:59.970Z,6.80
2019-05-16T02:08:29.647Z,8.13
2019-05-16T02:10:59.349Z,5.97
2019-05-16T02:13:29.010Z,7.63
2019-05-16T02:15:59.496Z,13.00
2019-05-16T02:18:29.237Z,9.27
2019-05-16T02:21:01.410Z,5.17
2019-05-16T02:23:30.973Z,6.60
2019-05-16T02:26:00.874Z,7.07
2019-05-16T02:28:39.247Z,9.80
2019-05-16T02:31:01.951Z,8.33
2019-05-16T02:33:31.956Z,7.95
2019-05-16T02:36:02.045Z,5.42
2019-05-16T02:38:32.132Z,9.40
2019-05-16T02:41:03.045Z,6.87
2019-05-16T02:43:34.202Z,10.20
2019-05-16T02:46:03.900Z,7.28
2019-05-16T02:48:35.259Z,7.83
2019-05-16T02:51:05.956Z,6.60
2019-05-16T02:53:35.614Z,6.97
2019-05-16T02:56:05.435Z,5.60
2019-05-16T02:58:35.089Z,5.57
2019-05-16T03:01:04.901Z,6.23
2019-05-16T03:03:34.728Z,6.55
2019-05-16T03:06:04.632Z,6.07
2019-05-16T03:08:35.539Z,6.47
2019-05-16T03:11:05.344Z,7.73
2019-05-16T03:13:37.771Z,6.80
2019-05-16T03:16:11.711Z,7.80
2019-05-16T03:18:42.894Z,6.20
2019-05-16T03:21:12.890Z,9.28
2019-05-16T03:23:42.552Z,6.60
2019-05-16T03:26:12.233Z,7.03
2019-05-16T03:28:43.598Z,6.83
2019-05-16T03:31:15.606Z,6.65
2019-05-16T03:33:51.968Z,6.70
2019-05-16T03:36:16.502Z,6.20
2019-05-16T03:38:46.257Z,6.67
2019-05-16T03:41:15.915Z,8.53
2019-05-16T03:43:46.889Z,8.40
2019-05-16T03:46:16.603Z,7.87
2019-05-16T03:48:46.294Z,7.97
2019-05-16T03:51:15.947Z,10.05
2019-05-16T03:53:45.910Z,8.40
2019-05-16T03:56:15.557Z,6.87
2019-05-16T03:58:45.233Z,7.60
2019-05-16T04:01:14.887Z,8.60
2019-05-16T04:03:45.075Z,8.93
2019-05-16T04:06:14.727Z,6.07
2019-05-16T04:08:44.414Z,5.53
2019-05-16T04:11:14.050Z,4.83
2019-05-16T04:13:43.712Z,7.90
2019-05-16T04:16:13.363Z,6.00
2019-05-16T04:18:43.027Z,7.03
2019-05-16T04:21:12.793Z,6.93
2019-05-16T04:23:42.743Z,7.40
2019-05-16T04:26:12.397Z,4.77
2019-05-16T04:28:42.388Z,5.78
2019-05-16T04:31:12.034Z,2.90
2019-05-16T04:33:41.972Z,3.60
2019-05-16T04:36:11.695Z,4.50
2019-05-16T04:38:46.458Z,3.23
2019-05-16T04:41:14.069Z,3.60
2019-05-16T04:43:43.749Z,4.28
2019-05-16T04:46:13.409Z,3.73
2019-05-16T04:48:43.133Z,5.30
2019-05-16T04:51:12.788Z,2.67
2019-05-16T04:53:42.896Z,3.87
2019-05-16T04:56:12.853Z,4.80
2019-05-16T04:58:42.574Z,3.53
2019-05-16T05:01:13.185Z,4.72
2019-05-16T05:04:00.439Z,3.15
2019-05-16T05:06:14.708Z,3.63
2019-05-16T05:08:56.845Z,2.90
2019-05-16T05:11:17.199Z,4.37
2019-05-16T05:13:46.865Z,2.53
2019-05-16T05:16:16.536Z,2.70
2019-05-16T05:18:46.173Z,4.10
2019-05-16T05:21:15.830Z,4.37
2019-05-16T05:23:45.938Z,3.73
2019-05-16T05:26:15.831Z,2.70
2019-05-16T05:28:45.797Z,3.23
2019-05-16T05:31:15.461Z,2.50
2019-05-16T05:33:45.465Z,4.43
2019-05-16T05:36:15.159Z,5.23
2019-05-16T05:38:48.451Z,3.30
2019-05-16T05:41:19.756Z,4.58
2019-05-16T05:43:50.350Z,2.80
2019-05-16T05:46:20.564Z,2.62
2019-05-16T05:48:50.680Z,1.90
2019-05-16T05:51:20.835Z,2.33
2019-05-16T05:53:51.075Z,2.55
2019-05-16T05:56:20.817Z,1.57
2019-05-16T05:58:51.164Z,2.50
2019-05-16T06:01:21.009Z,1.90
2019-05-16T06:03:50.737Z,4.35
2019-05-16T06:06:21.398Z,1.98
2019-05-16T06:08:51.204Z,3.33
2019-05-16T06:11:20.874Z,1.20
2019-05-16T06:13:50.794Z,2.45
2019-05-16T06:16:20.678Z,1.77
2019-05-16T06:18:50.689Z,1.67
2019-05-16T06:21:20.615Z,1.90
2019-05-16T06:23:50.988Z,1.62
2019-05-16T06:26:20.786Z,2.27
2019-05-16T06:28:51.484Z,2.03
2019-05-16T06:31:22.083Z,2.93
2019-05-16T06:33:51.984Z,1.50
2019-05-16T06:36:21.898Z,1.22
2019-05-16T06:38:51.858Z,2.17
2019-05-16T06:41:21.612Z,2.52
2019-05-16T06:43:51.617Z,2.87
2019-05-16T06:46:21.292Z,2.97
2019-05-16T06:48:50.942Z,1.77
2019-05-16T06:51:20.603Z,2.12
2019-05-16T06:53:50.295Z,1.57
2019-05-16T06:56:20.237Z,1.60
2019-05-16T06:58:51.999Z,2.17
2019-05-16T07:01:21.277Z,2.10
2019-05-16T07:03:51.048Z,1.67
2019-05-16T07:06:45.436Z,1.30
2019-05-16T07:08:52.279Z,1.93
2019-05-16T07:11:22.394Z,2.73
2019-05-16T07:13:52.277Z,1.70
2019-05-16T07:16:22.442Z,2.27
2019-05-16T07:18:52.082Z,2.85
2019-05-16T07:21:21.770Z,3.00
2019-05-16T07:23:51.418Z,2.10
2019-05-16T07:26:21.678Z,1.33
2019-05-16T07:28:51.895Z,1.17
2019-05-16T07:31:22.663Z,1.97
2019-05-16T07:33:52.683Z,1.70
2019-05-16T07:36:22.423Z,1.63
2019-05-16T07:38:52.363Z,2.23
2019-05-16T07:41:22.468Z,1.80
2019-05-16T07:43:52.142Z,2.47
2019-05-16T07:46:21.798Z,2.27
2019-05-16T07:48:52.166Z,2.20
2019-05-16T07:51:21.811Z,2.00
2019-05-16T07:53:51.470Z,2.70
2019-05-16T07:56:21.373Z,1.60
2019-05-16T07:58:51.033Z,2.60
2019-05-16T08:01:20.671Z,1.60
2019-05-16T08:03:51.058Z,1.53
2019-05-16T08:06:21.012Z,2.40
2019-05-16T08:08:51.257Z,3.23
2019-05-16T08:11:23.655Z,1.70
2019-05-16T08:13:52.420Z,1.07
2019-05-16T08:16:22.129Z,1.37
2019-05-16T08:18:52.303Z,1.40
2019-05-16T08:21:21.968Z,2.20
2019-05-16T08:23:51.605Z,1.37
2019-05-16T08:26:22.222Z,0.93
2019-05-16T08:28:52.025Z,1.50
2019-05-16T08:31:21.771Z,1.03
2019-05-16T08:33:54.080Z,1.37
2019-05-16T08:36:22.874Z,1.70
2019-05-16T08:38:52.562Z,1.10
2019-05-16T08:41:22.466Z,1.70
2019-05-16T08:46:23.968Z,1.42
2019-05-16T08:48:54.408Z,1.30
2019-05-16T08:50:05.528Z,1.97
2019-05-16T08:51:24.088Z,1.00
2019-05-16T08:53:53.795Z,1.40
2019-05-16T08:56:24.404Z,1.73
2019-05-16T08:58:54.757Z,2.45
2019-05-16T09:01:24.412Z,0.90
2019-05-16T09:03:54.075Z,1.87
2019-05-16T09:06:23.798Z,2.67
2019-05-16T09:08:55.146Z,2.53
2019-05-16T09:11:35.735Z,1.20
2019-05-16T09:13:57.269Z,1.00
2019-05-16T09:16:27.589Z,0.98
2019-05-16T09:18:57.872Z,1.45
2019-05-16T09:21:27.763Z,1.13
2019-05-16T09:23:57.946Z,1.07
2019-05-16T09:26:28.045Z,1.23
2019-05-16T09:28:57.721Z,1.37
2019-05-16T09:31:27.747Z,1.60
2019-05-16T09:33:57.492Z,1.55
2019-05-16T09:36:28.181Z,1.07
2019-05-16T09:38:59.274Z,1.03
2019-05-16T09:41:46.194Z,1.07
2019-05-16T09:44:00.364Z,2.03
2019-05-16T09:46:30.015Z,1.13
2019-05-16T09:49:15.676Z,1.05
2019-05-16T09:51:31.183Z,1.57
2019-05-16T09:54:00.943Z,1.07
2019-05-16T09:56:30.584Z,1.77
2019-05-16T09:59:01.211Z,1.98
2019-05-16T10:01:31.002Z,0.80
2019-05-16T10:04:01.648Z,1.27
2019-05-16T10:06:31.362Z,1.57
2019-05-16T10:09:01.025Z,1.10
2019-05-16T10:11:32.318Z,1.70
2019-05-16T10:14:01.965Z,1.97
2019-05-16T10:16:31.793Z,2.55
2019-05-16T10:19:01.547Z,2.10
2019-05-16T10:21:31.204Z,1.87
2019-05-16T10:24:00.861Z,2.47
2019-05-16T10:26:30.510Z,1.87
2019-05-16T10:29:00.168Z,2.63
2019-05-16T10:31:41.324Z,2.37
2019-05-16T10:34:01.502Z,2.70
2019-05-16T10:36:31.151Z,2.27
2019-05-16T10:39:01.082Z,2.23
2019-05-16T10:41:32.616Z,1.53
2019-05-16T10:44:02.768Z,1.77
2019-05-16T10:46:32.452Z,2.55
2019-05-16T10:49:02.207Z,2.23
2019-05-16T10:51:31.878Z,1.50
2019-05-16T10:54:09.456Z,3.43
2019-05-16T10:56:33.599Z,2.23
2019-05-16T10:59:38.331Z,2.37
2019-05-16T11:01:36.706Z,2.40
2019-05-16T11:04:07.506Z,1.27
2019-05-16T11:06:37.399Z,2.93
2019-05-16T11:09:07.478Z,1.80
2019-05-16T11:11:37.897Z,2.63
2019-05-16T11:14:09.332Z,3.72
2019-05-16T11:16:39.431Z,1.40
2019-05-16T11:19:17.438Z,1.70
2019-05-16T11:21:40.804Z,2.00
2019-05-16T11:24:12.732Z,1.80
2019-05-16T11:26:42.361Z,3.23
2019-05-16T11:29:12.027Z,1.72
2019-05-16T11:31:41.678Z,3.20
2019-05-16T11:34:12.407Z,2.73
2019-05-16T11:36:42.049Z,2.57
2019-05-16T11:39:12.011Z,2.50
2019-05-16T11:41:41.653Z,3.83
2019-05-16T11:44:11.318Z,3.63
2019-05-16T11:46:41.303Z,2.73
2019-05-16T11:49:11.028Z,3.03
2019-05-16T11:51:41.007Z,2.17
2019-05-16T11:54:10.665Z,4.77
2019-05-16T11:56:40.300Z,2.80
2019-05-16T11:59:10.028Z,2.62
2019-05-16T12:01:39.676Z,2.58
2019-05-16T12:04:10.184Z,3.83
2019-05-16T12:06:40.075Z,3.90
2019-05-16T12:09:10.058Z,4.80
2019-05-16T12:11:39.739Z,3.43
2019-05-16T12:14:09.897Z,3.83
2019-05-16T12:16:39.629Z,4.77
2019-05-16T12:19:09.601Z,4.30
2019-05-16T12:21:39.244Z,5.27
2019-05-16T12:24:08.897Z,4.40
2019-05-16T12:26:38.540Z,5.37
2019-05-16T12:29:08.429Z,3.80
2019-05-16T12:31:53.879Z,4.23
2019-05-16T12:34:10.206Z,3.25
2019-05-16T12:36:39.846Z,4.00
2019-05-16T12:39:09.681Z,4.10
2019-05-16T12:41:41.428Z,4.53
2019-05-16T12:44:10.810Z,4.97
2019-05-16T12:46:40.527Z,4.13
2019-05-16T12:49:10.434Z,6.15
2019-05-16T12:51:40.080Z,3.72
2019-05-16T12:54:10.337Z,4.63
2019-05-16T12:56:39.999Z,4.13
2019-05-16T12:59:09.652Z,4.97
2019-05-16T13:01:39.589Z,4.03
2019-05-16T13:04:12.439Z,6.20
2019-05-16T13:06:40.595Z,4.97
2019-05-16T13:09:10.250Z,5.13
2019-05-16T13:11:39.924Z,4.30
2019-05-16T13:14:11.348Z,4.95
2019-05-16T13:16:40.996Z,4.33
2019-05-16T13:19:10.708Z,5.73
2019-05-16T13:21:40.770Z,6.17
2019-05-16T13:24:10.595Z,5.27
2019-05-16T13:26:40.260Z,3.57
2019-05-16T13:29:09.908Z,4.23
2019-05-16T13:31:39.809Z,4.37
2019-05-16T13:34:09.781Z,3.80
2019-05-16T13:36:40.565Z,5.00
2019-05-16T13:39:10.295Z,5.20
2019-05-16T13:41:40.065Z,5.27
2019-05-16T13:44:18.486Z,6.97
2019-05-16T13:46:42.061Z,5.80
2019-05-16T13:49:11.715Z,3.77
2019-05-16T13:51:41.638Z,7.62
2019-05-16T13:54:11.328Z,6.13
2019-05-16T13:56:41.081Z,5.87
2019-05-16T13:59:11.688Z,4.10
2019-05-16T14:01:41.432Z,4.87
2019-05-16T14:04:11.153Z,7.77
2019-05-16T14:06:41.901Z,5.63
2019-05-16T14:09:11.787Z,5.35
2019-05-16T14:11:41.451Z,5.05
2019-05-16T14:14:12.072Z,7.20
2019-05-16T14:16:41.726Z,4.83
2019-05-16T14:19:11.481Z,6.87
2019-05-16T14:21:41.406Z,7.70
2019-05-16T14:24:11.139Z,6.73
2019-05-16T14:26:41.082Z,7.75
2019-05-16T14:29:10.985Z,7.37
2019-05-16T14:31:40.764Z,8.63
2019-05-16T14:34:10.410Z,8.97
2019-05-16T14:36:40.391Z,8.83
2019-05-16T14:39:10.355Z,7.22
2019-05-16T14:41:40.009Z,7.27
2019-05-16T14:44:10.019Z,36.60
2019-05-16T14:46:39.673Z,21.37
2019-05-16T14:49:09.470Z,7.47
2019-05-16T14:51:39.134Z,5.83
2019-05-16T14:54:08.802Z,6.03
2019-05-16T14:56:38.870Z,11.63
2019-05-16T14:59:08.518Z,25.45
2019-05-16T15:01:38.216Z,29.80
2019-05-16T15:04:08.113Z,44.33
2019-05-16T15:06:37.874Z,63.63
2019-05-16T15:09:08.925Z,32.93
2019-05-16T15:11:38.601Z,16.30
2019-05-16T15:14:08.680Z,7.40
2019-05-16T15:16:38.439Z,6.53
2019-05-16T15:19:08.307Z,5.95
2019-05-16T15:21:38.409Z,8.43
2019-05-16T15:24:08.127Z,6.10
2019-05-16T15:26:38.134Z,5.83
2019-05-16T15:29:08.275Z,13.37
2019-05-16T15:31:39.482Z,10.63
2019-05-16T15:34:09.628Z,5.97
2019-05-16T15:36:39.287Z,8.97
2019-05-16T15:39:09.409Z,7.22
2019-05-16T15:41:39.818Z,8.48
2019-05-16T15:44:09.810Z,9.63
2019-05-16T15:46:40.309Z,11.10
2019-05-16T15:49:10.494Z,13.10
2019-05-16T15:51:40.279Z,11.80
2019-05-16T15:54:11.539Z,9.93
2019-05-16T15:56:44.146Z,10.03
2019-05-16T15:59:13.794Z,9.58
2019-05-16T16:01:43.460Z,10.80
2019-05-16T16:04:13.452Z,9.20
2019-05-16T16:06:43.332Z,10.33
2019-05-16T16:09:13.041Z,10.08
2019-05-16T16:11:42.970Z,11.27
2019-05-16T16:14:12.979Z,8.93
2019-05-16T16:16:42.645Z,9.83
2019-05-16T16:19:12.363Z,10.00
2019-05-16T16:21:42.089Z,9.53
2019-05-16T16:24:11.750Z,9.67
2019-05-16T16:26:41.414Z,12.73
2019-05-16T16:29:11.066Z,9.50
2019-05-16T16:31:40.744Z,11.03
2019-05-16T16:34:10.393Z,10.73
2019-05-16T16:36:40.045Z,8.80
2019-05-16T16:39:09.777Z,11.47
2019-05-16T16:41:39.435Z,10.50
2019-05-16T16:44:10.111Z,10.17
2019-05-16T16:46:39.807Z,14.60
2019-05-16T16:49:09.717Z,12.17
2019-05-16T16:51:39.370Z,19.53
2019-05-16T16:54:09.310Z,13.60
2019-05-16T16:56:38.959Z,14.63
2019-05-16T16:59:08.624Z,13.95
2019-05-16T17:01:38.277Z,13.10
2019-05-16T17:04:08.769Z,24.73
2019-05-16T17:06:38.661Z,25.73
2019-05-16T17:09:08.491Z,18.23
2019-05-16T17:11:38.135Z,14.33
2019-05-16T17:14:07.791Z,16.12
2019-05-16T17:16:37.905Z,12.85
2019-05-16T17:19:08.084Z,12.18
2019-05-16T17:21:37.736Z,11.77
2019-05-16T17:24:07.390Z,18.03
2019-05-16T17:26:37.945Z,15.93
2019-05-16T17:29:07.601Z,10.60
2019-05-16T17:31:37.549Z,13.83
2019-05-16T17:34:08.334Z,11.37
2019-05-16T17:36:39.663Z,12.70
2019-05-16T17:39:09.658Z,9.60
2019-05-16T17:41:39.485Z,14.13
2019-05-16T17:44:09.219Z,13.77
2019-05-16T17:46:40.966Z,10.07
2019-05-16T17:49:10.310Z,10.17
2019-05-16T17:51:40.039Z,10.78
2019-05-16T17:54:09.853Z,10.83
2019-05-16T17:56:39.833Z,9.40
2019-05-16T17:59:09.572Z,11.13
2019-05-16T18:01:39.471Z,9.63
2019-05-16T18:04:09.126Z,10.00
2019-05-16T18:06:38.865Z,15.97
2019-05-16T18:09:09.011Z,13.37
2019-05-16T18:11:38.735Z,11.30
2019-05-16T18:14:08.458Z,8.47
2019-05-16T18:16:51.733Z,10.40
2019-05-16T18:19:09.660Z,17.20
2019-05-16T18:21:39.385Z,12.00
2019-05-16T18:24:09.073Z,9.17
2019-05-16T18:26:38.721Z,11.60
2019-05-16T18:29:08.777Z,10.57
2019-05-16T18:31:38.499Z,11.03
2019-05-16T18:34:08.183Z,13.13
2019-05-16T18:36:38.115Z,12.82
2019-05-16T18:39:08.959Z,28.77
2019-05-16T18:41:39.016Z,31.47
2019-05-16T18:44:08.938Z,14.28
2019-05-16T18:46:38.943Z,10.77
2019-05-16T18:49:08.608Z,10.50
2019-05-16T18:51:38.506Z,10.60
2019-05-16T18:54:08.408Z,11.47
2019-05-16T18:56:38.111Z,10.20
2019-05-16T18:59:08.160Z,8.43
2019-05-16T19:01:37.810Z,9.28
2019-05-16T19:04:09.583Z,12.87
2019-05-16T19:06:39.466Z,8.43
2019-05-16T19:09:09.205Z,14.07
2019-05-16T19:11:38.850Z,7.53
2019-05-16T19:14:09.228Z,9.43
2019-05-16T19:16:39.180Z,9.53
2019-05-16T19:19:08.903Z,8.43
2019-05-16T19:21:38.797Z,9.27
2019-05-16T19:24:08.458Z,11.33
2019-05-16T19:26:40.312Z,10.30
2019-05-16T19:29:09.606Z,9.50
2019-05-16T19:31:39.705Z,15.73
2019-05-16T19:34:10.356Z,7.33
2019-05-16T19:36:39.997Z,8.87
2019-05-16T19:39:09.729Z,10.60
2019-05-16T19:41:39.798Z,10.13
2019-05-16T19:44:09.542Z,10.20
2019-05-16T19:46:39.258Z,8.63
2019-05-16T19:49:09.472Z,6.90
2019-05-16T19:51:39.117Z,9.28
2019-05-16T19:54:08.773Z,8.00
2019-05-16T19:56:38.437Z,9.50
2019-05-16T19:59:08.948Z,13.30
2019-05-16T20:01:38.586Z,8.07
2019-05-16T20:04:08.761Z,12.85
2019-05-16T20:06:38.699Z,11.50
2019-05-16T20:09:09.182Z,13.37
2019-05-16T20:11:39.029Z,9.23
2019-05-16T20:14:08.759Z,9.27
2019-05-16T20:16:38.402Z,5.53
2019-05-16T20:19:08.377Z,15.70
2019-05-16T20:21:40.449Z,11.70
2019-05-16T20:24:09.625Z,11.97
2019-05-16T20:26:39.270Z,7.50
2019-05-16T20:29:09.246Z,7.17
2019-05-16T20:31:38.889Z,9.53
2019-05-16T20:34:09.473Z,8.15
2019-05-16T20:36:39.174Z,10.87
2019-05-16T20:39:09.098Z,11.08
2019-05-16T20:41:38.820Z,14.27
2019-05-16T20:44:08.492Z,15.27
2019-05-16T20:46:38.216Z,10.70
2019-05-16T20:49:07.897Z,13.43
2019-05-16T20:51:37.795Z,19.60
2019-05-16T20:54:07.527Z,13.10
2019-05-16T20:56:37.433Z,17.85
2019-05-16T20:59:07.150Z,13.55
2019-05-16T21:01:36.813Z,12.60
2019-05-16T21:04:07.090Z,9.47
2019-05-16T21:06:36.978Z,13.87
2019-05-16T21:09:07.117Z,14.58
2019-05-16T21:11:37.196Z,11.90
2019-05-16T21:14:07.337Z,11.80
2019-05-16T21:16:37.996Z,13.30
2019-05-16T21:19:07.800Z,13.50
2019-05-16T21:21:37.716Z,13.50
2019-05-16T21:24:07.363Z,15.05
2019-05-16T21:26:37.022Z,12.33
2019-05-16T21:29:08.367Z,11.93
2019-05-16T21:31:38.274Z,11.63
2019-05-16T21:34:07.991Z,9.83
2019-05-16T21:36:37.654Z,10.40
2019-05-16T21:39:08.595Z,13.40
2019-05-16T21:41:38.444Z,11.33
2019-05-16T21:44:08.115Z,10.10
2019-05-16T21:46:37.778Z,11.10
2019-05-16T21:49:07.611Z,9.80
2019-05-16T21:51:37.463Z,8.83
2019-05-16T21:54:08.090Z,10.03
2019-05-16T21:56:37.754Z,15.03
2019-05-16T21:59:07.659Z,16.17
2019-05-16T22:01:37.676Z,12.83
2019-05-16T22:04:07.635Z,11.27
2019-05-16T22:06:37.293Z,15.85
2019-05-16T22:09:08.024Z,41.30
2019-05-16T22:11:39.294Z,15.73
2019-05-16T22:14:10.632Z,9.08
2019-05-16T22:16:40.384Z,27.42
2019-05-16T22:19:10.023Z,24.92
2019-05-16T22:21:39.686Z,26.47
2019-05-16T22:24:09.478Z,83.83
2019-05-16T22:26:39.226Z,109.12
2019-05-16T22:29:08.873Z,15.00
2019-05-16T22:31:38.591Z,8.23
2019-05-16T22:34:08.229Z,9.20
2019-05-16T22:36:38.393Z,12.50
2019-05-16T22:39:08.277Z,8.10
2019-05-16T22:41:37.942Z,7.20
2019-05-16T22:44:08.861Z,10.10
2019-05-16T22:46:38.703Z,7.67
2019-05-16T22:49:08.914Z,10.60
2019-05-16T22:51:38.564Z,10.73
2019-05-16T22:54:08.221Z,9.97
2019-05-16T22:56:38.143Z,10.25
2019-05-16T22:59:07.795Z,13.25
2019-05-16T23:01:37.785Z,11.57
2019-05-16T23:04:07.435Z,11.23
2019-05-16T23:06:38.006Z,10.70
2019-05-16T23:09:08.696Z,12.85
2019-05-16T23:11:38.355Z,9.98
2019-05-16T23:14:08.002Z,8.37
2019-05-16T23:16:37.907Z,12.77
2019-05-16T23:19:07.563Z,14.35
2019-05-16T23:21:37.306Z,11.93
2019-05-16T23:24:07.273Z,12.07
2019-05-16T23:26:37.011Z,10.60
2019-05-16T23:29:06.660Z,8.33
2019-05-16T23:31:36.691Z,11.97
2019-05-16T23:34:07.200Z,11.63
2019-05-16T23:36:37.159Z,11.40
2019-05-16T23:39:07.813Z,11.90
2019-05-16T23:41:37.470Z,11.37
2019-05-16T23:44:07.591Z,10.83
2019-05-16T23:46:37.274Z,11.22
2019-05-16T23:49:07.341Z,12.50
2019-05-16T23:51:37.269Z,8.70
2019-05-16T23:54:06.986Z,8.87
2019-05-16T23:56:37.215Z,12.68
2019-05-16T23:59:07.086Z,9.05
